sensor_id;sensor_type;location;lat;lon;timestamp;temperature;humidity
25973;DHT22;13765;51.166;4.466;2022-10-30T00:01:00;15.70;99.90
25973;DHT22;13765;51.166;4.466;2022-10-30T00:03:27;15.70;99.90
25973;DHT22;13765;51.166;4.466;2022-10-30T00:05:52;15.70;99.90
25973;DHT22;13765;51.166;4.466;2022-10-30T00:08:23;15.70;99.90
25973;DHT22;13765;51.166;4.466;2022-10-30T00:10:53;15.70;99.90
25973;DHT22;13765;51.166;4.466;2022-10-30T00:13:19;15.70;99.90
25973;DHT22;13765;51.166;4.466;2022-10-30T00:15:55;15.70;99.90
25973;DHT22;13765;51.166;4.466;2022-10-30T00:18:20;15.70;99.90
25973;DHT22;13765;51.166;4.466;2022-10-30T00:20:47;15.60;99.90
25973;DHT22;13765;51.166;4.466;2022-10-30T00:23:15;15.60;99.90
25973;DHT22;13765;51.166;4.466;2022-10-30T00:25:41;15.60;99.90
25973;DHT22;13765;51.166;4.466;2022-10-30T00:28:07;15.60;99.90
25973;DHT22;13765;51.166;4.466;2022-10-30T00:30:34;15.50;99.90
25973;DHT22;13765;51.166;4.466;2022-10-30T00:33:00;15.50;99.90
25973;DHT22;13765;51.166;4.466;2022-10-30T00:35:26;15.50;99.90
25973;DHT22;13765;51.166;4.466;2022-10-30T00:37:52;15.50;99.90
25973;DHT22;13765;51.166;4.466;2022-10-30T00:40:23;15.50;99.90
25973;DHT22;13765;51.166;4.466;2022-10-30T00:42:51;15.40;99.90
25973;DHT22;13765;51.166;4.466;2022-10-30T00:45:17;15.40;99.90
25973;DHT22;13765;51.166;4.466;2022-10-30T00:48:02;15.40;99.90
25973;DHT22;13765;51.166;4.466;2022-10-30T00:50:38;15.50;99.90
25973;DHT22;13765;51.166;4.466;2022-10-30T00:53:14;15.50;99.90
25973;DHT22;13765;51.166;4.466;2022-10-30T00:56:02;15.50;99.90
25973;DHT22;13765;51.166;4.466;2022-10-30T00:58:42;15.50;99.90
25973;DHT22;13765;51.166;4.466;2022-10-30T01:01:13;15.50;99.90
25973;DHT22;13765;51.166;4.466;2022-10-30T01:03:44;15.50;99.90
25973;DHT22;13765;51.166;4.466;2022-10-30T01:06:14;15.50;99.90
25973;DHT22;13765;51.166;4.466;2022-10-30T01:08:42;15.50;99.90
25973;DHT22;13765;51.166;4.466;2022-10-30T01:11:11;15.40;99.90
25973;DHT22;13765;51.166;4.466;2022-10-30T01:13:37;15.40;99.90
25973;DHT22;13765;51.166;4.466;2022-10-30T01:24:25;15.40;99.90
25973;DHT22;13765;51.166;4.466;2022-10-30T01:34:56;15.40;99.90
25973;DHT22;13765;51.166;4.466;2022-10-30T01:40:18;15.40;99.90
25973;DHT22;13765;51.166;4.466;2022-10-30T01:42:52;15.40;99.90
25973;DHT22;13765;51.166;4.466;2022-10-30T01:45:51;15.40;99.90
25973;DHT22;13765;51.166;4.466;2022-10-30T01:53:54;15.40;99.90
25973;DHT22;13765;51.166;4.466;2022-10-30T01:56:38;15.40;99.90
25973;DHT22;13765;51.166;4.466;2022-10-30T01:59:18;15.40;99.90
25973;DHT22;13765;51.166;4.466;2022-10-30T02:01:46;15.40;99.90
25973;DHT22;13765;51.166;4.466;2022-10-30T02:04:15;15.40;99.90
25973;DHT22;13765;51.166;4.466;2022-10-30T02:06:44;15.40;99.90
25973;DHT22;13765;51.166;4.466;2022-10-30T02:09:10;15.40;99.90
25973;DHT22;13765;51.166;4.466;2022-10-30T02:11:36;15.40;99.90
25973;DHT22;13765;51.166;4.466;2022-10-30T02:14:08;15.40;99.90
25973;DHT22;13765;51.166;4.466;2022-10-30T02:16:36;15.50;99.90
25973;DHT22;13765;51.166;4.466;2022-10-30T02:19:03;15.40;99.90
25973;DHT22;13765;51.166;4.466;2022-10-30T02:21:32;15.50;99.90
25973;DHT22;13765;51.166;4.466;2022-10-30T02:23:57;15.50;99.90
25973;DHT22;13765;51.166;4.466;2022-10-30T02:26:26;15.50;99.90
25973;DHT22;13765;51.166;4.466;2022-10-30T02:28:52;15.50;99.90
25973;DHT22;13765;51.166;4.466;2022-10-30T02:31:18;15.50;99.90
25973;DHT22;13765;51.166;4.466;2022-10-30T02:33:47;15.50;99.90
25973;DHT22;13765;51.166;4.466;2022-10-30T02:36:13;15.50;99.90
25973;DHT22;13765;51.166;4.466;2022-10-30T02:38:42;15.50;99.90
25973;DHT22;13765;51.166;4.466;2022-10-30T02:41:10;15.40;99.90
25973;DHT22;13765;51.166;4.466;2022-10-30T02:43:36;15.50;99.90
25973;DHT22;13765;51.166;4.466;2022-10-30T02:46:02;15.50;99.90
25973;DHT22;13765;51.166;4.466;2022-10-30T02:48:31;15.50;99.90
25973;DHT22;13765;51.166;4.466;2022-10-30T02:51:00;15.50;99.90
25973;DHT22;13765;51.166;4.466;2022-10-30T02:53:27;15.40;99.90
25973;DHT22;13765;51.166;4.466;2022-10-30T02:56:01;15.50;99.90
25973;DHT22;13765;51.166;4.466;2022-10-30T02:58:27;15.40;99.90
25973;DHT22;13765;51.166;4.466;2022-10-30T03:00:53;15.50;99.90
25973;DHT22;13765;51.166;4.466;2022-10-30T03:03:19;15.40;99.90
25973;DHT22;13765;51.166;4.466;2022-10-30T03:05:45;15.40;99.90
25973;DHT22;13765;51.166;4.466;2022-10-30T03:08:13;15.40;99.90
25973;DHT22;13765;51.166;4.466;2022-10-30T03:10:39;15.40;99.90
25973;DHT22;13765;51.166;4.466;2022-10-30T03:13:05;15.40;99.90
25973;DHT22;13765;51.166;4.466;2022-10-30T03:15:31;15.40;99.90
25973;DHT22;13765;51.166;4.466;2022-10-30T03:17:59;15.40;99.90
25973;DHT22;13765;51.166;4.466;2022-10-30T03:20:25;15.40;99.90
25973;DHT22;13765;51.166;4.466;2022-10-30T03:22:50;15.40;99.90
25973;DHT22;13765;51.166;4.466;2022-10-30T03:25:16;15.40;99.90
25973;DHT22;13765;51.166;4.466;2022-10-30T03:27:47;15.30;99.90
25973;DHT22;13765;51.166;4.466;2022-10-30T03:30:13;15.30;99.90
25973;DHT22;13765;51.166;4.466;2022-10-30T03:32:39;15.20;99.90
25973;DHT22;13765;51.166;4.466;2022-10-30T03:35:07;15.10;99.90
25973;DHT22;13765;51.166;4.466;2022-10-30T03:37:33;15.10;99.90
25973;DHT22;13765;51.166;4.466;2022-10-30T03:40:01;15.10;99.90
25973;DHT22;13765;51.166;4.466;2022-10-30T03:42:29;15.10;99.90
25973;DHT22;13765;51.166;4.466;2022-10-30T03:44:57;15.00;99.90
25973;DHT22;13765;51.166;4.466;2022-10-30T03:47:22;14.90;99.90
25973;DHT22;13765;51.166;4.466;2022-10-30T03:49:48;14.90;99.90
25973;DHT22;13765;51.166;4.466;2022-10-30T03:52:14;14.90;99.90
25973;DHT22;13765;51.166;4.466;2022-10-30T03:54:39;14.90;99.90
25973;DHT22;13765;51.166;4.466;2022-10-30T03:57:07;14.90;99.90
25973;DHT22;13765;51.166;4.466;2022-10-30T03:59:36;14.80;99.90
25973;DHT22;13765;51.166;4.466;2022-10-30T04:02:02;14.80;99.90
25973;DHT22;13765;51.166;4.466;2022-10-30T04:04:27;14.80;99.90
25973;DHT22;13765;51.166;4.466;2022-10-30T04:06:55;14.80;99.90
25973;DHT22;13765;51.166;4.466;2022-10-30T04:09:23;14.80;99.90
25973;DHT22;13765;51.166;4.466;2022-10-30T04:11:49;14.80;99.90
25973;DHT22;13765;51.166;4.466;2022-10-30T04:14:17;14.80;99.90
25973;DHT22;13765;51.166;4.466;2022-10-30T04:16:42;14.70;99.90
25973;DHT22;13765;51.166;4.466;2022-10-30T04:19:08;14.70;99.90
25973;DHT22;13765;51.166;4.466;2022-10-30T04:21:36;14.70;99.90
25973;DHT22;13765;51.166;4.466;2022-10-30T04:24:04;14.70;99.90
25973;DHT22;13765;51.166;4.466;2022-10-30T04:26:30;14.60;99.90
25973;DHT22;13765;51.166;4.466;2022-10-30T04:28:55;14.60;99.90
25973;DHT22;13765;51.166;4.466;2022-10-30T04:31:21;14.60;99.90
25973;DHT22;13765;51.166;4.466;2022-10-30T04:33:47;14.50;99.90
25973;DHT22;13765;51.166;4.466;2022-10-30T04:36:15;14.50;99.90
25973;DHT22;13765;51.166;4.466;2022-10-30T04:38:42;14.50;99.90
25973;DHT22;13765;51.166;4.466;2022-10-30T04:41:08;14.50;99.90
25973;DHT22;13765;51.166;4.466;2022-10-30T04:43:41;14.50;99.90
25973;DHT22;13765;51.166;4.466;2022-10-30T04:46:06;14.40;99.90
25973;DHT22;13765;51.166;4.466;2022-10-30T04:48:32;14.40;99.90
25973;DHT22;13765;51.166;4.466;2022-10-30T04:50:59;14.40;99.90
25973;DHT22;13765;51.166;4.466;2022-10-30T04:53:25;14.40;99.90
25973;DHT22;13765;51.166;4.466;2022-10-30T04:55:55;14.40;99.90
25973;DHT22;13765;51.166;4.466;2022-10-30T04:58:22;14.40;99.90
25973;DHT22;13765;51.166;4.466;2022-10-30T05:00:48;14.40;99.90
25973;DHT22;13765;51.166;4.466;2022-10-30T05:03:20;14.30;99.90
25973;DHT22;13765;51.166;4.466;2022-10-30T05:05:54;14.40;99.90
25973;DHT22;13765;51.166;4.466;2022-10-30T05:08:20;14.40;99.90
25973;DHT22;13765;51.166;4.466;2022-10-30T05:10:45;14.30;99.90
25973;DHT22;13765;51.166;4.466;2022-10-30T05:13:13;14.30;99.90
25973;DHT22;13765;51.166;4.466;2022-10-30T05:15:41;14.20;99.90
25973;DHT22;13765;51.166;4.466;2022-10-30T05:18:07;14.10;99.90
25973;DHT22;13765;51.166;4.466;2022-10-30T05:20:33;14.10;99.90
25973;DHT22;13765;51.166;4.466;2022-10-30T05:23:03;14.10;99.90
25973;DHT22;13765;51.166;4.466;2022-10-30T05:25:29;14.10;99.90
25973;DHT22;13765;51.166;4.466;2022-10-30T05:28:02;14.10;99.90
25973;DHT22;13765;51.166;4.466;2022-10-30T05:30:30;14.10;99.90
25973;DHT22;13765;51.166;4.466;2022-10-30T05:33:01;14.10;99.90
25973;DHT22;13765;51.166;4.466;2022-10-30T05:35:28;14.10;99.90
25973;DHT22;13765;51.166;4.466;2022-10-30T05:37:55;14.00;99.90
25973;DHT22;13765;51.166;4.466;2022-10-30T05:40:21;14.00;99.90
25973;DHT22;13765;51.166;4.466;2022-10-30T05:42:47;14.00;99.90
25973;DHT22;13765;51.166;4.466;2022-10-30T05:45:14;14.10;99.90
25973;DHT22;13765;51.166;4.466;2022-10-30T05:47:43;14.00;99.90
25973;DHT22;13765;51.166;4.466;2022-10-30T05:50:10;14.00;99.90
25973;DHT22;13765;51.166;4.466;2022-10-30T05:52:38;14.00;99.90
25973;DHT22;13765;51.166;4.466;2022-10-30T05:55:06;14.00;99.90
25973;DHT22;13765;51.166;4.466;2022-10-30T05:57:34;14.00;99.90
25973;DHT22;13765;51.166;4.466;2022-10-30T06:00:00;14.00;99.90
25973;DHT22;13765;51.166;4.466;2022-10-30T06:02:28;14.10;99.90
25973;DHT22;13765;51.166;4.466;2022-10-30T06:04:54;14.10;99.90
25973;DHT22;13765;51.166;4.466;2022-10-30T06:07:20;14.10;99.90
25973;DHT22;13765;51.166;4.466;2022-10-30T06:09:48;14.10;99.90
25973;DHT22;13765;51.166;4.466;2022-10-30T06:12:14;14.10;99.90
25973;DHT22;13765;51.166;4.466;2022-10-30T06:14:41;14.00;99.90
25973;DHT22;13765;51.166;4.466;2022-10-30T06:17:07;14.10;99.90
25973;DHT22;13765;51.166;4.466;2022-10-30T06:19:33;14.10;99.90
25973;DHT22;13765;51.166;4.466;2022-10-30T06:21:59;14.10;99.90
25973;DHT22;13765;51.166;4.466;2022-10-30T06:24:24;14.10;99.90
25973;DHT22;13765;51.166;4.466;2022-10-30T06:26:53;14.00;99.90
25973;DHT22;13765;51.166;4.466;2022-10-30T06:29:18;14.00;99.90
25973;DHT22;13765;51.166;4.466;2022-10-30T06:31:46;14.00;99.90
25973;DHT22;13765;51.166;4.466;2022-10-30T06:34:11;14.00;99.90
25973;DHT22;13765;51.166;4.466;2022-10-30T06:36:37;14.10;99.90
25973;DHT22;13765;51.166;4.466;2022-10-30T06:39:03;14.00;99.90
25973;DHT22;13765;51.166;4.466;2022-10-30T06:41:30;14.10;99.90
25973;DHT22;13765;51.166;4.466;2022-10-30T06:43:59;14.20;99.90
25973;DHT22;13765;51.166;4.466;2022-10-30T06:46:25;14.10;99.90
25973;DHT22;13765;51.166;4.466;2022-10-30T06:48:51;14.10;99.90
25973;DHT22;13765;51.166;4.466;2022-10-30T06:51:17;14.10;99.90
25973;DHT22;13765;51.166;4.466;2022-10-30T06:53:42;14.10;99.90
25973;DHT22;13765;51.166;4.466;2022-10-30T06:56:11;14.10;99.90
25973;DHT22;13765;51.166;4.466;2022-10-30T06:58:36;14.20;99.90
25973;DHT22;13765;51.166;4.466;2022-10-30T07:01:06;14.20;99.90
25973;DHT22;13765;51.166;4.466;2022-10-30T07:03:33;14.10;99.90
25973;DHT22;13765;51.166;4.466;2022-10-30T07:05:59;14.10;99.90
25973;DHT22;13765;51.166;4.466;2022-10-30T07:08:25;14.20;99.90
25973;DHT22;13765;51.166;4.466;2022-10-30T07:10:55;14.30;99.90
25973;DHT22;13765;51.166;4.466;2022-10-30T07:13:21;14.30;99.90
25973;DHT22;13765;51.166;4.466;2022-10-30T07:15:50;14.40;99.90
25973;DHT22;13765;51.166;4.466;2022-10-30T07:18:16;14.50;99.90
25973;DHT22;13765;51.166;4.466;2022-10-30T07:20:41;14.60;99.90
25973;DHT22;13765;51.166;4.466;2022-10-30T07:23:07;14.60;99.90
25973;DHT22;13765;51.166;4.466;2022-10-30T07:25:32;14.60;99.90
25973;DHT22;13765;51.166;4.466;2022-10-30T07:28:00;14.60;99.90
25973;DHT22;13765;51.166;4.466;2022-10-30T07:30:27;14.60;99.90
25973;DHT22;13765;51.166;4.466;2022-10-30T07:33:00;14.70;99.90
25973;DHT22;13765;51.166;4.466;2022-10-30T07:35:26;14.80;99.90
25973;DHT22;13765;51.166;4.466;2022-10-30T07:37:53;14.90;99.90
25973;DHT22;13765;51.166;4.466;2022-10-30T07:40:18;14.90;99.90
25973;DHT22;13765;51.166;4.466;2022-10-30T07:42:48;15.00;99.90
25973;DHT22;13765;51.166;4.466;2022-10-30T07:45:14;15.00;99.90
25973;DHT22;13765;51.166;4.466;2022-10-30T07:47:43;15.10;99.90
25973;DHT22;13765;51.166;4.466;2022-10-30T07:50:12;15.20;99.90
25973;DHT22;13765;51.166;4.466;2022-10-30T07:52:38;15.20;99.90
25973;DHT22;13765;51.166;4.466;2022-10-30T07:55:04;15.30;99.90
25973;DHT22;13765;51.166;4.466;2022-10-30T07:57:38;15.40;99.90
25973;DHT22;13765;51.166;4.466;2022-10-30T08:00:09;15.50;99.90
25973;DHT22;13765;51.166;4.466;2022-10-30T08:02:38;15.50;99.90
25973;DHT22;13765;51.166;4.466;2022-10-30T08:05:06;15.60;99.90
25973;DHT22;13765;51.166;4.466;2022-10-30T08:07:34;15.60;99.90
25973;DHT22;13765;51.166;4.466;2022-10-30T08:10:00;15.60;99.90
25973;DHT22;13765;51.166;4.466;2022-10-30T08:12:27;15.70;99.90
25973;DHT22;13765;51.166;4.466;2022-10-30T08:14:53;15.80;99.90
25973;DHT22;13765;51.166;4.466;2022-10-30T08:17:22;15.90;99.90
25973;DHT22;13765;51.166;4.466;2022-10-30T08:19:49;16.00;99.90
25973;DHT22;13765;51.166;4.466;2022-10-30T08:22:20;16.10;99.90
25973;DHT22;13765;51.166;4.466;2022-10-30T08:24:48;16.20;99.90
25973;DHT22;13765;51.166;4.466;2022-10-30T08:27:14;16.30;99.90
25973;DHT22;13765;51.166;4.466;2022-10-30T08:29:39;16.30;99.90
25973;DHT22;13765;51.166;4.466;2022-10-30T08:32:08;16.40;99.90
25973;DHT22;13765;51.166;4.466;2022-10-30T08:34:34;16.50;99.90
25973;DHT22;13765;51.166;4.466;2022-10-30T08:36:59;16.60;99.90
25973;DHT22;13765;51.166;4.466;2022-10-30T08:39:25;16.70;99.90
25973;DHT22;13765;51.166;4.466;2022-10-30T08:41:51;16.80;99.90
25973;DHT22;13765;51.166;4.466;2022-10-30T08:44:16;16.90;99.90
25973;DHT22;13765;51.166;4.466;2022-10-30T08:46:42;17.00;99.90
25973;DHT22;13765;51.166;4.466;2022-10-30T08:49:08;17.10;99.90
25973;DHT22;13765;51.166;4.466;2022-10-30T08:51:34;17.10;99.90
25973;DHT22;13765;51.166;4.466;2022-10-30T08:54:03;17.10;99.90
25973;DHT22;13765;51.166;4.466;2022-10-30T08:56:29;17.20;99.90
25973;DHT22;13765;51.166;4.466;2022-10-30T08:58:54;17.20;99.90
25973;DHT22;13765;51.166;4.466;2022-10-30T09:01:23;17.30;99.90
25973;DHT22;13765;51.166;4.466;2022-10-30T09:03:51;17.30;99.90
25973;DHT22;13765;51.166;4.466;2022-10-30T09:06:16;17.20;99.90
25973;DHT22;13765;51.166;4.466;2022-10-30T09:08:43;17.20;99.90
25973;DHT22;13765;51.166;4.466;2022-10-30T09:11:11;17.30;99.90
25973;DHT22;13765;51.166;4.466;2022-10-30T09:13:39;17.40;99.90
25973;DHT22;13765;51.166;4.466;2022-10-30T09:16:07;17.40;99.90
25973;DHT22;13765;51.166;4.466;2022-10-30T09:18:35;17.40;99.90
25973;DHT22;13765;51.166;4.466;2022-10-30T09:21:02;17.50;99.90
25973;DHT22;13765;51.166;4.466;2022-10-30T09:23:28;17.60;99.90
25973;DHT22;13765;51.166;4.466;2022-10-30T09:25:56;17.60;99.90
25973;DHT22;13765;51.166;4.466;2022-10-30T09:28:23;17.70;99.90
25973;DHT22;13765;51.166;4.466;2022-10-30T09:30:52;17.70;99.90
25973;DHT22;13765;51.166;4.466;2022-10-30T09:33:22;17.70;99.90
25973;DHT22;13765;51.166;4.466;2022-10-30T09:35:49;17.80;99.90
25973;DHT22;13765;51.166;4.466;2022-10-30T09:38:17;17.80;99.90
25973;DHT22;13765;51.166;4.466;2022-10-30T09:46:28;18.30;99.90
25973;DHT22;13765;51.166;4.466;2022-10-30T09:49:19;18.40;99.90
25973;DHT22;13765;51.166;4.466;2022-10-30T09:58:10;18.80;99.90
25973;DHT22;13765;51.166;4.466;2022-10-30T10:03:51;19.00;99.90
25973;DHT22;13765;51.166;4.466;2022-10-30T10:06:22;19.10;99.90
25973;DHT22;13765;51.166;4.466;2022-10-30T10:09:16;19.10;99.90
25973;DHT22;13765;51.166;4.466;2022-10-30T10:11:44;19.00;99.90
25973;DHT22;13765;51.166;4.466;2022-10-30T10:14:20;19.10;99.90
25973;DHT22;13765;51.166;4.466;2022-10-30T10:16:55;19.10;99.90
25973;DHT22;13765;51.166;4.466;2022-10-30T10:19:25;19.20;99.90
25973;DHT22;13765;51.166;4.466;2022-10-30T10:22:01;19.30;99.90
25973;DHT22;13765;51.166;4.466;2022-10-30T10:24:36;19.30;99.90
25973;DHT22;13765;51.166;4.466;2022-10-30T10:38:15;19.70;99.90
25973;DHT22;13765;51.166;4.466;2022-10-30T10:43:42;19.80;99.90
25973;DHT22;13765;51.166;4.466;2022-10-30T10:46:39;19.90;99.90
25973;DHT22;13765;51.166;4.466;2022-10-30T10:49:24;19.90;99.90
25973;DHT22;13765;51.166;4.466;2022-10-30T10:51:55;20.00;99.90
25973;DHT22;13765;51.166;4.466;2022-10-30T10:54:56;20.10;99.90
25973;DHT22;13765;51.166;4.466;2022-10-30T10:57:28;20.00;99.90
25973;DHT22;13765;51.166;4.466;2022-10-30T11:00:17;20.10;99.90
25973;DHT22;13765;51.166;4.466;2022-10-30T11:02:54;20.20;99.90
25973;DHT22;13765;51.166;4.466;2022-10-30T11:05:34;20.30;99.90
25973;DHT22;13765;51.166;4.466;2022-10-30T11:08:32;20.40;99.90
25973;DHT22;13765;51.166;4.466;2022-10-30T11:11:05;20.50;99.90
25973;DHT22;13765;51.166;4.466;2022-10-30T11:13:36;20.50;99.90
25973;DHT22;13765;51.166;4.466;2022-10-30T11:18:51;20.60;99.90
25973;DHT22;13765;51.166;4.466;2022-10-30T11:21:21;20.70;99.90
25973;DHT22;13765;51.166;4.466;2022-10-30T11:23:51;20.80;99.90
25973;DHT22;13765;51.166;4.466;2022-10-30T11:28:51;20.90;99.90
25973;DHT22;13765;51.166;4.466;2022-10-30T11:31:28;21.00;99.90
25973;DHT22;13765;51.166;4.466;2022-10-30T11:36:48;21.10;99.90
25973;DHT22;13765;51.166;4.466;2022-10-30T11:42:11;21.10;99.90
25973;DHT22;13765;51.166;4.466;2022-10-30T11:44:41;21.20;99.90
25973;DHT22;13765;51.166;4.466;2022-10-30T11:47:10;21.40;99.90
25973;DHT22;13765;51.166;4.466;2022-10-30T11:49:57;21.30;99.90
25973;DHT22;13765;51.166;4.466;2022-10-30T11:52:25;21.20;99.90
25973;DHT22;13765;51.166;4.466;2022-10-30T11:54:59;21.10;99.90
25973;DHT22;13765;51.166;4.466;2022-10-30T12:00:00;21.10;99.90
25973;DHT22;13765;51.166;4.466;2022-10-30T12:02:39;21.30;99.90
25973;DHT22;13765;51.166;4.466;2022-10-30T12:05:38;21.30;99.90
25973;DHT22;13765;51.166;4.466;2022-10-30T12:13:17;21.20;99.90
25973;DHT22;13765;51.166;4.466;2022-10-30T12:16:05;21.30;99.90
25973;DHT22;13765;51.166;4.466;2022-10-30T12:18:32;21.30;99.90
25973;DHT22;13765;51.166;4.466;2022-10-30T12:21:03;21.20;99.90
25973;DHT22;13765;51.166;4.466;2022-10-30T12:23:30;21.00;99.90
25973;DHT22;13765;51.166;4.466;2022-10-30T12:26:00;21.10;99.90
25973;DHT22;13765;51.166;4.466;2022-10-30T12:28:31;21.10;99.90
25973;DHT22;13765;51.166;4.466;2022-10-30T12:33:45;21.20;99.90
25973;DHT22;13765;51.166;4.466;2022-10-30T12:36:17;21.40;99.90
25973;DHT22;13765;51.166;4.466;2022-10-30T12:38:55;21.40;99.90
25973;DHT22;13765;51.166;4.466;2022-10-30T12:41:28;21.20;99.90
25973;DHT22;13765;51.166;4.466;2022-10-30T12:44:17;21.20;99.90
25973;DHT22;13765;51.166;4.466;2022-10-30T12:52:13;21.30;99.90
25973;DHT22;13765;51.166;4.466;2022-10-30T12:57:23;21.50;99.90
25973;DHT22;13765;51.166;4.466;2022-10-30T13:03:04;21.70;99.90
25973;DHT22;13765;51.166;4.466;2022-10-30T13:05:39;21.60;99.90
25973;DHT22;13765;51.166;4.466;2022-10-30T13:11:26;21.40;99.90
25973;DHT22;13765;51.166;4.466;2022-10-30T13:13:56;21.50;99.90
25973;DHT22;13765;51.166;4.466;2022-10-30T13:16:30;21.60;99.90
25973;DHT22;13765;51.166;4.466;2022-10-30T13:19:02;21.60;99.90
25973;DHT22;13765;51.166;4.466;2022-10-30T13:24:14;21.30;99.90
25973;DHT22;13765;51.166;4.466;2022-10-30T13:26:51;21.40;99.90
25973;DHT22;13765;51.166;4.466;2022-10-30T13:29:40;21.50;99.90
25973;DHT22;13765;51.166;4.466;2022-10-30T13:49:59;20.80;99.90
25973;DHT22;13765;51.166;4.466;2022-10-30T13:52:31;20.60;99.90
25973;DHT22;13765;51.166;4.466;2022-10-30T13:57:35;20.60;99.90
25973;DHT22;13765;51.166;4.466;2022-10-30T14:00:17;20.60;99.90
25973;DHT22;13765;51.166;4.466;2022-10-30T14:05:58;20.60;99.90
25973;DHT22;13765;51.166;4.466;2022-10-30T14:11:47;20.80;99.90
25973;DHT22;13765;51.166;4.466;2022-10-30T14:17:07;20.70;99.90
25973;DHT22;13765;51.166;4.466;2022-10-30T14:22:34;20.50;99.90
25973;DHT22;13765;51.166;4.466;2022-10-30T14:25:01;20.50;99.90
25973;DHT22;13765;51.166;4.466;2022-10-30T14:27:36;20.30;99.90
25973;DHT22;13765;51.166;4.466;2022-10-30T14:30:12;20.40;99.90
25973;DHT22;13765;51.166;4.466;2022-10-30T14:32:47;20.40;99.90
25973;DHT22;13765;51.166;4.466;2022-10-30T14:35:34;20.50;99.90
25973;DHT22;13765;51.166;4.466;2022-10-30T14:40:53;20.50;99.90
25973;DHT22;13765;51.166;4.466;2022-10-30T14:43:30;20.60;99.90
25973;DHT22;13765;51.166;4.466;2022-10-30T14:46:13;20.50;99.90
25973;DHT22;13765;51.166;4.466;2022-10-30T14:49:14;20.50;99.90
25973;DHT22;13765;51.166;4.466;2022-10-30T14:51:57;20.50;99.90
25973;DHT22;13765;51.166;4.466;2022-10-30T14:54:32;20.50;99.90
25973;DHT22;13765;51.166;4.466;2022-10-30T14:57:02;20.30;99.90
25973;DHT22;13765;51.166;4.466;2022-10-30T14:59:33;20.30;99.90
25973;DHT22;13765;51.166;4.466;2022-10-30T15:02:22;20.20;99.90
25973;DHT22;13765;51.166;4.466;2022-10-30T15:05:20;20.30;99.90
25973;DHT22;13765;51.166;4.466;2022-10-30T15:08:04;20.40;99.90
25973;DHT22;13765;51.166;4.466;2022-10-30T15:10:34;20.40;99.90
25973;DHT22;13765;51.166;4.466;2022-10-30T15:15:31;20.10;99.90
25973;DHT22;13765;51.166;4.466;2022-10-30T15:18:29;20.10;99.90
25973;DHT22;13765;51.166;4.466;2022-10-30T15:21:04;20.00;99.90
25973;DHT22;13765;51.166;4.466;2022-10-30T15:23:33;19.80;99.90
25973;DHT22;13765;51.166;4.466;2022-10-30T15:26:05;19.60;99.90
25973;DHT22;13765;51.166;4.466;2022-10-30T15:28:33;19.40;99.90
25973;DHT22;13765;51.166;4.466;2022-10-30T15:33:45;19.10;99.90
25973;DHT22;13765;51.166;4.466;2022-10-30T15:36:18;19.00;99.90
25973;DHT22;13765;51.166;4.466;2022-10-30T15:39:05;18.90;99.90
25973;DHT22;13765;51.166;4.466;2022-10-30T15:41:33;18.80;99.90
25973;DHT22;13765;51.166;4.466;2022-10-30T15:44:02;18.80;99.90
25973;DHT22;13765;51.166;4.466;2022-10-30T15:46:27;18.70;99.90
25973;DHT22;13765;51.166;4.466;2022-10-30T15:48:54;18.60;99.90
25973;DHT22;13765;51.166;4.466;2022-10-30T15:51:22;18.70;99.90
25973;DHT22;13765;51.166;4.466;2022-10-30T15:53:57;18.60;99.90
25973;DHT22;13765;51.166;4.466;2022-10-30T15:56:36;18.50;99.90
25973;DHT22;13765;51.166;4.466;2022-10-30T15:59:05;18.50;99.90
25973;DHT22;13765;51.166;4.466;2022-10-30T16:01:36;18.40;99.90
25973;DHT22;13765;51.166;4.466;2022-10-30T16:04:25;18.40;99.90
25973;DHT22;13765;51.166;4.466;2022-10-30T16:06:53;18.30;99.90
25973;DHT22;13765;51.166;4.466;2022-10-30T16:09:23;18.30;99.90
25973;DHT22;13765;51.166;4.466;2022-10-30T16:11:51;18.30;99.90
25973;DHT22;13765;51.166;4.466;2022-10-30T16:14:23;18.30;99.90
25973;DHT22;13765;51.166;4.466;2022-10-30T16:16:50;18.30;99.90
25973;DHT22;13765;51.166;4.466;2022-10-30T16:19:27;18.30;99.90
25973;DHT22;13765;51.166;4.466;2022-10-30T16:21:57;18.10;99.90
25973;DHT22;13765;51.166;4.466;2022-10-30T16:24:33;18.00;99.90
25973;DHT22;13765;51.166;4.466;2022-10-30T16:27:17;18.00;99.90
25973;DHT22;13765;51.166;4.466;2022-10-30T16:29:51;17.90;99.90
25973;DHT22;13765;51.166;4.466;2022-10-30T16:32:22;17.90;99.90
25973;DHT22;13765;51.166;4.466;2022-10-30T16:34:49;17.90;99.90
25973;DHT22;13765;51.166;4.466;2022-10-30T16:37:23;17.90;99.90
25973;DHT22;13765;51.166;4.466;2022-10-30T16:39:52;17.80;99.90
25973;DHT22;13765;51.166;4.466;2022-10-30T16:42:38;17.80;99.90
25973;DHT22;13765;51.166;4.466;2022-10-30T16:47:44;17.70;99.90
25973;DHT22;13765;51.166;4.466;2022-10-30T16:50:13;17.70;99.90
25973;DHT22;13765;51.166;4.466;2022-10-30T16:52:42;17.70;99.90
25973;DHT22;13765;51.166;4.466;2022-10-30T16:55:28;17.60;99.90
25973;DHT22;13765;51.166;4.466;2022-10-30T16:57:57;17.60;99.90
25973;DHT22;13765;51.166;4.466;2022-10-30T17:00:25;17.50;99.90
25973;DHT22;13765;51.166;4.466;2022-10-30T17:02:53;17.50;99.90
25973;DHT22;13765;51.166;4.466;2022-10-30T17:05:28;17.50;99.90
25973;DHT22;13765;51.166;4.466;2022-10-30T17:07:59;17.50;99.90
25973;DHT22;13765;51.166;4.466;2022-10-30T17:16:24;17.50;99.90
25973;DHT22;13765;51.166;4.466;2022-10-30T17:18:51;17.40;99.90
25973;DHT22;13765;51.166;4.466;2022-10-30T17:21:20;17.30;99.90
25973;DHT22;13765;51.166;4.466;2022-10-30T17:23:56;17.30;99.90
25973;DHT22;13765;51.166;4.466;2022-10-30T17:26:25;17.20;99.90
25973;DHT22;13765;51.166;4.466;2022-10-30T17:28:55;17.10;99.90
25973;DHT22;13765;51.166;4.466;2022-10-30T17:36:38;17.00;99.90
25973;DHT22;13765;51.166;4.466;2022-10-30T17:39:04;16.90;99.90
25973;DHT22;13765;51.166;4.466;2022-10-30T17:41:33;16.90;99.90
25973;DHT22;13765;51.166;4.466;2022-10-30T17:44:02;16.80;99.90
25973;DHT22;13765;51.166;4.466;2022-10-30T17:46:29;16.80;99.90
25973;DHT22;13765;51.166;4.466;2022-10-30T17:48:56;16.80;99.90
25973;DHT22;13765;51.166;4.466;2022-10-30T17:51:23;16.80;99.90
25973;DHT22;13765;51.166;4.466;2022-10-30T17:53:53;16.70;99.90
25973;DHT22;13765;51.166;4.466;2022-10-30T17:56:24;16.70;99.90
25973;DHT22;13765;51.166;4.466;2022-10-30T17:58:53;16.70;99.90
25973;DHT22;13765;51.166;4.466;2022-10-30T18:01:24;16.60;99.90
25973;DHT22;13765;51.166;4.466;2022-10-30T18:03:52;16.60;99.90
25973;DHT22;13765;51.166;4.466;2022-10-30T18:06:23;16.50;99.90
25973;DHT22;13765;51.166;4.466;2022-10-30T18:08:52;16.50;99.90
25973;DHT22;13765;51.166;4.466;2022-10-30T18:11:23;16.40;99.90
25973;DHT22;13765;51.166;4.466;2022-10-30T18:13:53;16.40;99.90
25973;DHT22;13765;51.166;4.466;2022-10-30T18:16:22;16.40;99.90